createdAt,value
2023-01-01T00:01:16.910Z,99415.80
2023-01-01T00:03:59.917Z,99412.80
2023-01-01T00:06:27.786Z,99407.00
2023-01-01T00:09:14.226Z,99394.60
2023-01-01T00:11:42.001Z,99406.20
2023-01-01T00:14:12.516Z,99407.60
2023-01-01T00:16:40.883Z,99406.20
2023-01-01T00:19:08.697Z,99407.20
2023-01-01T00:21:36.375Z,99413.80
2023-01-01T00:24:04.540Z,99406.80
2023-01-01T00:26:35.539Z,99408.80
2023-01-01T00:29:05.003Z,99404.80
2023-01-01T00:31:32.783Z,99404.40
2023-01-01T00:34:00.745Z,99399.40
2023-01-01T00:36:30.512Z,99403.20
2023-01-01T00:38:58.816Z,99408.00
2023-01-01T00:41:26.639Z,99415.20
2023-01-01T00:43:54.399Z,99413.20
2023-01-01T00:46:22.156Z,99409.00
2023-01-01T00:48:49.899Z,99422.80
2023-01-01T00:51:17.636Z,99416.00
2023-01-01T00:53:45.360Z,99428.20
2023-01-01T00:56:13.094Z,99434.20
2023-01-01T00:58:40.795Z,99422.00
2023-01-01T01:01:08.803Z,99423.80
2023-01-01T01:03:39.374Z,99428.80
2023-01-01T01:06:12.800Z,99427.80
2023-01-01T01:08:44.645Z,99451.60
2023-01-01T01:11:17.279Z,99452.40
2023-01-01T01:13:47.937Z,99461.40
2023-01-01T01:16:26.500Z,99463.40
2023-01-01T01:18:58.768Z,99472.80
2023-01-01T01:21:30.181Z,99469.80
2023-01-01T01:24:01.383Z,99465.00
2023-01-01T01:26:32.747Z,99473.00
2023-01-01T01:29:00.591Z,99470.00
2023-01-01T01:31:31.763Z,99475.20
2023-01-01T01:33:59.531Z,99482.20
2023-01-01T01:36:28.700Z,99491.00
2023-01-01T01:38:56.885Z,99496.60
2023-01-01T01:41:28.740Z,99501.40
2023-01-01T01:44:27.428Z,99514.80
2023-01-01T01:47:03.237Z,99514.20
2023-01-01T01:49:32.686Z,99518.60
2023-01-01T01:52:02.022Z,99520.60
2023-01-01T01:54:30.426Z,99525.60
2023-01-01T01:57:06.026Z,99520.00
2023-01-01T01:59:40.261Z,99536.40
2023-01-01T02:02:22.304Z,99539.40
2023-01-01T02:04:50.427Z,99549.40
2023-01-01T02:07:19.551Z,99561.40
2023-01-01T02:09:47.411Z,99556.00
2023-01-01T02:12:15.181Z,99561.40
2023-01-01T02:14:43.059Z,99568.80
2023-01-01T02:17:41.461Z,99576.80
2023-01-01T02:20:54.640Z,99582.60
2023-01-01T02:23:40.846Z,99585.80
2023-01-01T02:26:38.586Z,99588.20
2023-01-01T02:29:46.370Z,99583.20
2023-01-01T02:32:41.203Z,99591.80
2023-01-01T02:35:42.378Z,99594.60
2023-01-01T02:38:29.934Z,99595.20
2023-01-01T02:41:48.560Z,99600.60
2023-01-01T02:44:19.740Z,99607.00
2023-01-01T02:46:47.484Z,99605.20
2023-01-01T02:49:15.200Z,99608.20
2023-01-01T02:51:54.984Z,99604.00
2023-01-01T02:54:58.999Z,99604.40
2023-01-01T02:57:41.787Z,99609.20
2023-01-01T03:00:31.335Z,99613.20
2023-01-01T03:03:23.772Z,99615.60
2023-01-01T03:06:24.424Z,99616.80
2023-01-01T03:09:29.434Z,99622.40
2023-01-01T03:12:08.788Z,99618.20
2023-01-01T03:14:45.241Z,99615.20
2023-01-01T03:17:38.428Z,99623.00
2023-01-01T03:20:21.283Z,99620.60
2023-01-01T03:22:52.790Z,99624.20
2023-01-01T03:25:25.005Z,99619.80
2023-01-01T03:28:02.569Z,99626.80
2023-01-01T03:30:33.485Z,99635.00
2023-01-01T03:33:08.669Z,99642.00
2023-01-01T03:36:00.853Z,99643.80
2023-01-01T03:39:07.598Z,99645.60
2023-01-01T03:41:46.621Z,99635.00
2023-01-01T03:44:38.530Z,99639.20
2023-01-01T03:47:07.091Z,99641.20
2023-01-01T03:49:35.570Z,99637.80
2023-01-01T03:52:57.528Z,99640.60
2023-01-01T03:55:46.978Z,99645.40
2023-01-01T03:58:53.975Z,99649.40
2023-01-01T04:01:30.264Z,99659.80
2023-01-01T04:04:01.433Z,99665.80
2023-01-01T04:06:29.487Z,99665.20
2023-01-01T04:08:59.464Z,99673.40
2023-01-01T04:11:50.876Z,99673.80
2023-01-01T04:14:31.856Z,99681.40
2023-01-01T04:17:01.271Z,99679.00
2023-01-01T04:19:29.469Z,99681.60
2023-01-01T04:21:57.923Z,99682.40
2023-01-01T04:24:26.067Z,99689.80
2023-01-01T04:26:55.840Z,99693.40
2023-01-01T04:29:23.730Z,99691.00
2023-01-01T04:31:51.770Z,99693.00
2023-01-01T04:34:19.460Z,99688.80
2023-01-01T04:36:47.149Z,99690.00
2023-01-01T04:39:14.973Z,99690.00
2023-01-01T04:41:42.685Z,99697.00
2023-01-01T04:44:10.447Z,99698.00
2023-01-01T04:46:38.168Z,99706.00
2023-01-01T04:49:06.192Z,99701.80
2023-01-01T04:51:34.165Z,99702.00
2023-01-01T04:54:02.267Z,99708.60
2023-01-01T04:56:29.976Z,99709.80
2023-01-01T04:58:58.613Z,99715.60
2023-01-01T05:01:29.101Z,99719.00
2023-01-01T05:03:58.605Z,99721.00
2023-01-01T05:06:27.264Z,99721.60
2023-01-01T05:08:57.029Z,99726.40
2023-01-01T05:11:28.368Z,99729.20
2023-01-01T05:14:00.643Z,99735.80
2023-01-01T05:16:31.725Z,99734.20
2023-01-01T05:19:00.245Z,99740.00
2023-01-01T05:21:32.110Z,99754.00
2023-01-01T05:24:04.990Z,99750.60
2023-01-01T05:26:36.776Z,99741.40
2023-01-01T05:29:09.037Z,99742.20
2023-01-01T05:31:44.209Z,99754.20
2023-01-01T05:34:12.831Z,99758.80
2023-01-01T05:36:40.648Z,99766.60
2023-01-01T05:39:12.482Z,99762.40
2023-01-01T05:41:42.033Z,99772.00
2023-01-01T05:44:10.437Z,99785.60
2023-01-01T05:46:38.635Z,99790.20
2023-01-01T05:49:06.400Z,99787.20
2023-01-01T05:54:01.015Z,99787.00
2023-01-01T05:56:28.868Z,99789.20
2023-01-01T05:58:57.537Z,99792.80
2023-01-01T06:01:29.307Z,99791.20
2023-01-01T06:03:59.407Z,99792.00
2023-01-01T06:06:32.978Z,99794.20
2023-01-01T06:09:03.785Z,99811.20
2023-01-01T06:11:32.368Z,99817.20
2023-01-01T06:14:01.759Z,99816.60
2023-01-01T06:16:31.516Z,99820.00
2023-01-01T06:18:59.919Z,99820.40
2023-01-01T06:21:29.766Z,99817.00
2023-01-01T06:23:59.669Z,99825.00
2023-01-01T06:26:32.647Z,99826.00
2023-01-01T06:29:03.015Z,99833.20
2023-01-01T06:31:35.528Z,99834.20
2023-01-01T06:34:09.075Z,99832.00
2023-01-01T06:36:36.900Z,99828.00
2023-01-01T06:39:05.387Z,99831.00
2023-01-01T06:41:33.359Z,99832.20
2023-01-01T06:44:02.150Z,99842.20
2023-01-01T06:46:36.378Z,99845.00
2023-01-01T06:49:11.358Z,99844.20
2023-01-01T06:51:42.764Z,99853.40
2023-01-01T06:54:11.205Z,99860.20
2023-01-01T06:56:39.328Z,99881.60
2023-01-01T06:59:07.187Z,99884.40
2023-01-01T07:01:43.953Z,99876.00
2023-01-01T07:04:16.234Z,99881.20
2023-01-01T07:06:44.160Z,99877.60
2023-01-01T07:09:11.875Z,99884.80
2023-01-01T07:11:39.663Z,99889.20
2023-01-01T07:14:07.413Z,99894.00
2023-01-01T07:16:35.196Z,99894.20
2023-01-01T07:19:03.035Z,99894.40
2023-01-01T07:21:43.402Z,99895.60
2023-01-01T07:24:15.304Z,99886.20
2023-01-01T07:26:43.358Z,99886.00
2023-01-01T07:29:13.017Z,99890.20
2023-01-01T07:31:43.604Z,99899.60
2023-01-01T07:34:16.741Z,99902.60
2023-01-01T07:36:44.703Z,99906.20
2023-01-01T07:39:12.908Z,99914.60
2023-01-01T07:41:40.739Z,99912.40
2023-01-01T07:44:08.445Z,99915.00
2023-01-01T07:46:37.127Z,99910.00
2023-01-01T07:49:05.684Z,99902.00
2023-01-01T07:51:33.591Z,99907.20
2023-01-01T07:54:06.668Z,99917.60
2023-01-01T07:56:36.335Z,99925.60
2023-01-01T07:59:04.821Z,99981.60
2023-01-01T08:01:37.281Z,99999.00
2023-01-01T08:04:06.412Z,99992.60
2023-01-01T08:06:34.200Z,99983.20
2023-01-01T08:09:02.098Z,99983.80
2023-01-01T08:11:29.942Z,99981.40
2023-01-01T08:13:57.636Z,99974.60
2023-01-01T08:16:25.638Z,99984.80
2023-01-01T08:18:53.463Z,99981.80
2023-01-01T08:21:21.164Z,99978.00
2023-01-01T08:23:48.894Z,99975.20
2023-01-01T08:26:18.727Z,99963.60
2023-01-01T08:28:49.656Z,99971.80
2023-01-01T08:31:20.168Z,99985.60
2023-01-01T08:33:47.977Z,99979.80
2023-01-01T08:36:16.438Z,99993.00
2023-01-01T08:38:44.211Z,99989.40
2023-01-01T08:41:12.034Z,100002.00
2023-01-01T08:43:39.890Z,99999.60
2023-01-01T08:46:07.657Z,99992.80
2023-01-01T08:48:35.609Z,99995.60
2023-01-01T08:51:03.404Z,99996.00
2023-01-01T08:53:33.019Z,99994.60
2023-01-01T08:56:12.230Z,99997.40
2023-01-01T08:58:40.543Z,99994.60
2023-01-01T09:01:09.300Z,100004.40
2023-01-01T09:03:37.808Z,99994.60
2023-01-01T09:06:06.050Z,99983.20
2023-01-01T09:08:33.870Z,99975.20
2023-01-01T09:11:03.643Z,99979.00
2023-01-01T09:13:32.804Z,99984.20
2023-01-01T09:16:00.832Z,99992.60
2023-01-01T09:18:28.704Z,99984.60
2023-01-01T09:20:56.473Z,99975.00
2023-01-01T09:23:24.231Z,99981.80
2023-01-01T09:25:51.952Z,99999.60
2023-01-01T09:28:25.459Z,100010.20
2023-01-01T09:30:53.846Z,100006.60
2023-01-01T09:33:21.686Z,100012.20
2023-01-01T09:35:50.112Z,100009.60
2023-01-01T09:38:18.641Z,100012.60
2023-01-01T09:41:10.860Z,100014.00
2023-01-01T09:43:59.894Z,100029.40
2023-01-01T09:46:31.677Z,100042.00
2023-01-01T09:49:09.790Z,100045.00
2023-01-01T09:51:48.964Z,100049.00
2023-01-01T09:54:33.493Z,100048.80
2023-01-01T09:57:06.603Z,100053.80
2023-01-01T09:59:34.665Z,100059.20
2023-01-01T10:02:21.473Z,100079.00
2023-01-01T10:05:18.152Z,100083.60
2023-01-01T10:08:08.249Z,100080.20
2023-01-01T10:10:49.572Z,100064.40
2023-01-01T10:13:32.971Z,100066.40
2023-01-01T10:16:12.377Z,100070.20
2023-01-01T10:18:43.056Z,100073.60
2023-01-01T10:21:27.387Z,100072.40
2023-01-01T10:23:59.771Z,100073.00
2023-01-01T10:26:31.481Z,100077.00
2023-01-01T10:29:12.807Z,100083.00
2023-01-01T10:31:46.744Z,100086.80
2023-01-01T10:34:29.135Z,100087.00
2023-01-01T10:37:00.706Z,100089.00
2023-01-01T10:39:28.439Z,100085.20
2023-01-01T10:41:58.306Z,100086.80
2023-01-01T10:44:31.701Z,100093.00
2023-01-01T10:47:22.168Z,100081.60
2023-01-01T10:50:04.419Z,100064.60
2023-01-01T10:52:40.625Z,100063.20
2023-01-01T10:55:23.570Z,100073.60
2023-01-01T10:57:51.286Z,100078.20
2023-01-01T11:00:27.099Z,100083.60
2023-01-01T11:03:22.229Z,100074.60
2023-01-01T11:06:24.735Z,100073.40
2023-01-01T11:08:56.616Z,100071.00
2023-01-01T11:11:46.407Z,100076.60
2023-01-01T11:14:28.880Z,100071.20
2023-01-01T11:16:58.564Z,100062.80
2023-01-01T11:19:36.499Z,100054.40
2023-01-01T11:22:06.211Z,100058.40
2023-01-01T11:24:35.571Z,100056.00
2023-01-01T11:27:25.428Z,100048.00
2023-01-01T11:30:26.829Z,100038.00
2023-01-01T11:33:00.853Z,100031.80
2023-01-01T11:35:33.493Z,100034.80
2023-01-01T11:38:03.756Z,100038.20
2023-01-01T11:40:46.071Z,100033.80
2023-01-01T11:43:41.244Z,100036.20
2023-01-01T11:46:14.901Z,100033.40
2023-01-01T11:48:44.321Z,100030.00
2023-01-01T11:51:31.804Z,100024.60
2023-01-01T11:54:34.062Z,100018.00
2023-01-01T11:57:16.166Z,100015.40
2023-01-01T12:00:00.778Z,100003.60
2023-01-01T12:02:49.440Z,100010.40
2023-01-01T12:06:06.151Z,100006.80
2023-01-01T12:08:45.281Z,100010.00
2023-01-01T12:11:29.207Z,100020.60
2023-01-01T12:14:22.237Z,100022.60
2023-01-01T12:17:02.848Z,100022.80
2023-01-01T12:19:41.254Z,100030.60
2023-01-01T12:22:18.812Z,100026.80
2023-01-01T12:24:49.595Z,100027.40
2023-01-01T12:28:06.477Z,100028.20
2023-01-01T12:31:10.376Z,100023.80
2023-01-01T12:34:03.920Z,100024.60
2023-01-01T12:37:03.741Z,100024.60
2023-01-01T12:40:10.631Z,100022.00
2023-01-01T12:43:21.988Z,100019.80
2023-01-01T12:46:37.691Z,100005.40
2023-01-01T12:49:26.705Z,100004.00
2023-01-01T12:52:37.740Z,100008.20
2023-01-01T12:55:53.400Z,100011.80
2023-01-01T12:58:34.655Z,100008.60
2023-01-01T13:01:22.613Z,100012.60
2023-01-01T13:03:57.204Z,100021.60
2023-01-01T13:06:38.379Z,100019.00
2023-01-01T13:09:26.319Z,100019.40
2023-01-01T13:12:06.070Z,100024.80
2023-01-01T13:14:43.158Z,100021.00
2023-01-01T13:17:27.184Z,100013.80
2023-01-01T13:20:24.806Z,100013.40
2023-01-01T13:22:53.779Z,100011.80
2023-01-01T13:25:30.242Z,100006.20
2023-01-01T13:28:03.495Z,100007.00
2023-01-01T13:30:37.452Z,100011.20
2023-01-01T13:33:28.971Z,100014.20
2023-01-01T13:36:09.289Z,100013.40
2023-01-01T13:38:54.554Z,100011.40
2023-01-01T13:41:43.730Z,100009.20
2023-01-01T13:44:21.529Z,100009.20
2023-01-01T13:47:12.318Z,100002.80
2023-01-01T13:50:09.551Z,100001.80
2023-01-01T13:53:27.841Z,100000.80
2023-01-01T13:56:12.005Z,99993.00
2023-01-01T13:59:20.364Z,99992.00
2023-01-01T14:01:56.936Z,99992.60
2023-01-01T14:04:39.803Z,99994.00
2023-01-01T14:10:15.565Z,99990.80
2023-01-01T14:12:43.627Z,99987.80
2023-01-01T14:15:26.225Z,99994.60
2023-01-01T14:17:57.844Z,99985.20
2023-01-01T14:20:36.217Z,99983.80
2023-01-01T14:23:10.650Z,99983.20
2023-01-01T14:25:42.415Z,99978.40
2023-01-01T14:28:29.115Z,99974.00
2023-01-01T14:31:06.973Z,99975.00
2023-01-01T14:33:39.699Z,99973.60
2023-01-01T14:36:31.728Z,99977.00
2023-01-01T14:39:03.408Z,99975.00
2023-01-01T14:41:41.573Z,99970.00
2023-01-01T14:44:16.908Z,99968.60
2023-01-01T14:46:52.243Z,99970.60
2023-01-01T14:49:37.592Z,99966.00
2023-01-01T14:52:31.277Z,99970.00
2023-01-01T14:55:00.783Z,99966.20
2023-01-01T14:57:34.372Z,99963.60
2023-01-01T15:00:16.272Z,99962.00
2023-01-01T15:02:44.083Z,99964.80
2023-01-01T15:05:34.809Z,99964.00
2023-01-01T15:08:07.261Z,99965.00
2023-01-01T15:10:38.700Z,99969.80
2023-01-01T15:13:07.306Z,99973.40
2023-01-01T15:15:46.883Z,99978.60
2023-01-01T15:18:45.783Z,99981.00
2023-01-01T15:21:31.847Z,99969.40
2023-01-01T15:24:05.288Z,99967.20
2023-01-01T15:27:00.050Z,99980.40
2023-01-01T15:29:38.051Z,99975.60
2023-01-01T15:32:25.163Z,99968.00
2023-01-01T15:34:56.058Z,99965.60
2023-01-01T15:37:47.955Z,99974.80
2023-01-01T15:40:15.619Z,99962.40
2023-01-01T15:43:12.276Z,99965.40
2023-01-01T15:45:50.519Z,99966.60
2023-01-01T15:48:31.418Z,99962.20
2023-01-01T15:51:05.030Z,99962.60
2023-01-01T15:53:54.323Z,99963.40
2023-01-01T15:56:27.230Z,99971.20
2023-01-01T15:59:16.562Z,99981.60
2023-01-01T16:01:44.785Z,99971.40
2023-01-01T16:04:28.976Z,99961.40
2023-01-01T16:06:58.261Z,99954.20
2023-01-01T16:09:26.586Z,99952.20
2023-01-01T16:11:57.081Z,99953.40
2023-01-01T16:14:25.048Z,99956.80
2023-01-01T16:17:00.737Z,99959.80
2023-01-01T16:19:33.814Z,99958.40
2023-01-01T16:22:01.563Z,99962.80
2023-01-01T16:24:29.301Z,99958.20
2023-01-01T16:26:56.998Z,99964.60
2023-01-01T16:29:24.702Z,99968.20
2023-01-01T16:31:52.579Z,99958.00
2023-01-01T16:34:20.334Z,99948.00
2023-01-01T16:36:49.731Z,99947.20
2023-01-01T16:39:18.771Z,99949.80
2023-01-01T16:41:46.608Z,99943.20
2023-01-01T16:44:15.693Z,99945.40
2023-01-01T16:46:44.158Z,99945.20
2023-01-01T16:49:12.192Z,99947.80
2023-01-01T16:51:43.773Z,99944.80
2023-01-01T16:54:12.338Z,99956.00
2023-01-01T16:56:40.163Z,99956.60
2023-01-01T16:59:07.921Z,99961.80
2023-01-01T17:01:36.266Z,99962.00
2023-01-01T17:04:04.378Z,99963.00
2023-01-01T17:06:32.180Z,99971.20
2023-01-01T17:09:00.693Z,99975.20
2023-01-01T17:11:28.590Z,99965.40
2023-01-01T17:13:59.843Z,99964.80
2023-01-01T17:16:32.882Z,99963.20
2023-01-01T17:19:20.623Z,99964.40
2023-01-01T17:21:48.911Z,99960.40
2023-01-01T17:24:19.502Z,99963.60
2023-01-01T17:26:53.339Z,99968.80
2023-01-01T17:29:22.109Z,99965.20
2023-01-01T17:31:50.037Z,99961.80
2023-01-01T17:34:18.399Z,99960.20
2023-01-01T17:36:46.195Z,99966.00
2023-01-01T17:39:15.749Z,99973.00
2023-01-01T17:41:44.853Z,99976.20
2023-01-01T17:44:13.077Z,99972.40
2023-01-01T17:46:42.443Z,99969.00
2023-01-01T17:49:10.485Z,99967.20
2023-01-01T17:51:39.399Z,99972.80
2023-01-01T17:54:13.099Z,99974.80
2023-01-01T17:56:41.526Z,99981.80
2023-01-01T17:59:10.114Z,99983.60
2023-01-01T18:01:38.104Z,99981.20
2023-01-01T18:04:08.899Z,99991.20
2023-01-01T18:06:42.611Z,99983.20
2023-01-01T18:09:14.298Z,99982.60
2023-01-01T18:11:43.675Z,99988.80
2023-01-01T18:14:14.281Z,99991.60
2023-01-01T18:16:45.241Z,99983.00
2023-01-01T18:19:13.420Z,99988.20
2023-01-01T18:21:43.082Z,99984.20
2023-01-01T18:24:16.175Z,99978.80
2023-01-01T18:26:43.982Z,99965.00
2023-01-01T18:29:11.807Z,99991.20
2023-01-01T18:31:40.052Z,99997.80
2023-01-01T18:34:08.118Z,99995.60
2023-01-01T18:36:36.035Z,100001.40
2023-01-01T18:39:28.576Z,99993.80
2023-01-01T18:42:36.393Z,99983.40
2023-01-01T18:45:24.510Z,99983.00
2023-01-01T18:47:52.400Z,99994.80
2023-01-01T18:50:26.494Z,99983.40
2023-01-01T18:53:12.441Z,99990.40
2023-01-01T18:55:40.430Z,99997.80
2023-01-01T18:58:30.348Z,99998.60
2023-01-01T19:01:00.307Z,99987.00
2023-01-01T19:03:28.745Z,99980.00
2023-01-01T19:05:58.942Z,99981.20
2023-01-01T19:08:29.846Z,99984.00
2023-01-01T19:11:02.492Z,99978.20
2023-01-01T19:13:37.574Z,99979.00
2023-01-01T19:16:24.333Z,99981.00
2023-01-01T19:18:53.467Z,99989.80
2023-01-01T19:21:24.268Z,99981.20
2023-01-01T19:23:56.089Z,99976.60
2023-01-01T19:26:32.060Z,99979.20
2023-01-01T19:29:09.885Z,99990.80
2023-01-01T19:31:37.725Z,99985.60
2023-01-01T19:34:05.742Z,99987.20
2023-01-01T19:36:33.511Z,99990.60
2023-01-01T19:39:01.244Z,99983.00
2023-01-01T19:41:29.056Z,99983.20
2023-01-01T19:43:56.796Z,99982.40
2023-01-01T19:46:24.731Z,99981.60
2023-01-01T19:48:55.411Z,99979.20
2023-01-01T19:51:23.642Z,99965.20
2023-01-01T19:53:55.958Z,99978.00
2023-01-01T19:56:23.889Z,99980.20
2023-01-01T19:58:53.031Z,99980.20
2023-01-01T20:01:20.932Z,99959.40
2023-01-01T20:03:54.623Z,99952.00
2023-01-01T20:06:25.992Z,99938.60
2023-01-01T20:08:54.836Z,99941.60
2023-01-01T20:11:23.310Z,99952.80
2023-01-01T20:13:51.126Z,99955.00
2023-01-01T20:16:18.943Z,99952.20
2023-01-01T20:18:48.083Z,99960.40
2023-01-01T20:21:34.871Z,99970.00
2023-01-01T20:24:02.898Z,99978.40
2023-01-01T20:26:30.934Z,99981.40
2023-01-01T20:29:17.196Z,99975.80
2023-01-01T20:31:45.807Z,99975.20
2023-01-01T20:34:13.599Z,99975.20
2023-01-01T20:37:00.165Z,99981.60
2023-01-01T20:39:28.470Z,99982.80
2023-01-01T20:41:56.414Z,99972.40
2023-01-01T20:44:24.345Z,99962.40
2023-01-01T20:46:52.848Z,99958.40
2023-01-01T20:49:21.818Z,99969.80
2023-01-01T20:51:52.970Z,99979.00
2023-01-01T20:54:23.534Z,99975.20
2023-01-01T20:56:51.983Z,99967.40
2023-01-01T20:59:37.364Z,99971.00
2023-01-01T21:02:10.859Z,99963.00
2023-01-01T21:04:40.321Z,99954.00
2023-01-01T21:07:12.703Z,99955.00
2023-01-01T21:09:41.839Z,99958.00
2023-01-01T21:12:10.236Z,99964.20
2023-01-01T21:14:38.223Z,99960.80
2023-01-01T21:17:21.957Z,99965.40
2023-01-01T21:19:55.027Z,99954.80
2023-01-01T21:22:22.888Z,99952.40
2023-01-01T21:24:54.500Z,99954.40
2023-01-01T21:27:34.509Z,99960.60
2023-01-01T21:30:03.686Z,99962.00
2023-01-01T21:32:40.166Z,99966.20
2023-01-01T21:35:32.473Z,99965.00
2023-01-01T21:38:15.838Z,99970.60
2023-01-01T21:41:14.160Z,99966.40
2023-01-01T21:43:45.559Z,99957.80
2023-01-01T21:46:35.921Z,99949.80
2023-01-01T21:49:19.406Z,99944.20
2023-01-01T21:51:58.265Z,99948.20
2023-01-01T21:54:37.985Z,99941.00
2023-01-01T21:57:18.792Z,99938.80
2023-01-01T21:59:47.460Z,99944.00
2023-01-01T22:02:30.264Z,99945.20
2023-01-01T22:05:12.217Z,99941.20
2023-01-01T22:07:58.204Z,99940.80
2023-01-01T22:10:35.256Z,99947.40
2023-01-01T22:13:16.897Z,99963.00
2023-01-01T22:15:45.851Z,99960.40
2023-01-01T22:18:28.005Z,99968.60
2023-01-01T22:20:56.314Z,99958.60
2023-01-01T22:23:41.680Z,99967.40
2023-01-01T22:26:24.686Z,99965.60
2023-01-01T22:29:02.057Z,99971.20
2023-01-01T22:31:33.793Z,99959.40
2023-01-01T22:34:04.513Z,99956.40
2023-01-01T22:36:36.710Z,99930.60
2023-01-01T22:39:16.283Z,99942.00
2023-01-01T22:41:50.065Z,99953.20
2023-01-01T22:44:17.997Z,99962.20
2023-01-01T22:46:45.857Z,99958.00
2023-01-01T22:49:35.670Z,99961.60
2023-01-01T22:52:04.567Z,99968.60
2023-01-01T22:54:32.330Z,99971.60
2023-01-01T22:57:00.531Z,99970.20
2023-01-01T22:59:28.370Z,99972.00
2023-01-01T23:01:56.162Z,99975.20
2023-01-01T23:04:23.809Z,99972.40
2023-01-01T23:06:52.646Z,99966.00
2023-01-01T23:09:20.998Z,99957.00
2023-01-01T23:11:48.915Z,99971.20
2023-01-01T23:14:38.877Z,99978.00
2023-01-01T23:17:07.957Z,99985.00
2023-01-01T23:19:35.757Z,99973.40
2023-01-01T23:22:04.494Z,99971.80
2023-01-01T23:24:32.936Z,99978.60
2023-01-01T23:27:02.279Z,99992.80
2023-01-01T23:29:33.047Z,99977.20
2023-01-01T23:32:03.040Z,99987.20
2023-01-01T23:34:31.288Z,99991.00
2023-01-01T23:36:59.405Z,99992.60
2023-01-01T23:39:27.363Z,99978.80
2023-01-01T23:41:55.157Z,99983.20
2023-01-01T23:44:22.892Z,99995.40
2023-01-01T23:46:52.280Z,99990.00
2023-01-01T23:49:22.423Z,100006.20
2023-01-01T23:51:50.180Z,100006.40
2023-01-01T23:54:17.939Z,100009.80
2023-01-01T23:56:45.742Z,100014.20
2023-01-01T23:59:13.474Z,100012.20
